Time;durP1;ratioP1;P1;durP2;ratioP2;P2;SDS_P1;SDS_P2;PMS_P1;PMS_P2;Temp;Humidity;BMP_temperature;BMP_pressure;BME280_temperature;BME280_humidity;BME280_pressure;Samples;Min_cycle;Max_cycle;Signal;HPM_P1;HPM_P2
2022/05/31 00:01:17;;;;;;;4.60;3.00;;;;;;100418.39;;;;107594;1276;27442;-31
2022/05/31 00:03:44;;;;;;;6.10;3.00;;;;;;100417.85;;;;107602;1276;27383;-31
2022/05/31 00:06:10;;;;;;;5.20;3.10;;;;;;100416.61;;;;107600;1277;27456;-31
2022/05/31 00:08:37;;;;;;;5.00;3.20;;;;;;100420.25;;;;107507;1276;28697;-31
2022/05/31 00:11:03;;;;;;;6.00;3.30;;;;;;100421.38;;;;107601;1276;28687;-31
2022/05/31 00:13:30;;;;;;;5.50;3.40;;;;;;100423.84;;;;107608;1276;28718;-31
2022/05/31 00:15:57;;;;;;;5.00;3.00;;;;;;100419.60;;;;107607;1277;28658;-31
2022/05/31 00:18:23;;;;;;;4.90;3.00;;;;;;100417.59;;;;107614;1276;28065;-31
2022/05/31 00:20:51;;;;;;;5.00;3.30;;;;;;100421.55;;;;107645;1277;29719;-31
2022/05/31 00:23:20;;;;;;;4.90;3.10;;;;;;100425.95;;;;107639;1276;28717;-31
2022/05/31 00:25:47;;;;;;;5.20;3.00;;;;;;100427.45;;;;107644;1276;27420;-31
2022/05/31 00:28:14;;;;;;;4.70;3.00;;;;;;100426.75;;;;107641;1276;29689;-31
2022/05/31 00:30:41;;;;;;;4.80;3.10;;;;;;100426.70;;;;107623;1277;28829;-31
2022/05/31 00:33:10;;;;;;;4.90;3.20;;;;;;100426.94;;;;107536;1277;27495;-31
2022/05/31 00:35:41;;;;;;;5.20;2.90;;;;;;100430.66;;;;107602;1277;27532;-31
2022/05/31 00:38:08;;;;;;;4.70;2.90;;;;;;100432.67;;;;107526;1277;27532;-31
2022/05/31 00:40:37;;;;;;;5.20;3.20;;;;;;100437.49;;;;107595;1277;28550;-31
2022/05/31 00:43:08;;;;;;;4.80;2.70;;;;;;100437.56;;;;107650;1277;29239;-31
2022/05/31 00:45:46;;;;;;;4.90;2.80;;;;;;100440.30;;;;107642;1277;26611;-31
2022/05/31 00:48:24;;;;;;;4.90;3.00;;;;;;100443.69;;;;107598;1276;28630;-31
2022/05/31 00:51:01;;;;;;;4.90;3.50;;;;;;100445.55;;;;107558;1277;28645;-31
2022/05/31 00:53:33;;;;;;;5.10;2.90;;;;;;100446.42;;;;107636;1276;27640;-31
2022/05/31 00:56:09;;;;;;;4.60;2.90;;;;;;100443.73;;;;107537;1277;29675;-31
2022/05/31 00:58:42;;;;;;;4.50;2.60;;;;;;100442.69;;;;107640;1276;27521;-31
2022/05/31 01:01:12;;;;;;;5.10;3.10;;;;;;100443.55;;;;107659;1276;28761;-31
2022/05/31 01:03:41;;;;;;;5.10;3.00;;;;;;100444.95;;;;107634;1276;27665;-31
2022/05/31 01:06:10;;;;;;;4.70;2.90;;;;;;100443.45;;;;107651;1276;27616;-31
2022/05/31 01:08:42;;;;;;;6.10;2.90;;;;;;100442.70;;;;107597;1277;29616;-31
2022/05/31 01:11:09;;;;;;;4.80;3.20;;;;;;100445.19;;;;107638;1276;28765;-31
2022/05/31 01:13:36;;;;;;;5.00;3.00;;;;;;100449.75;;;;107618;1276;29600;-31
2022/05/31 01:16:07;;;;;;;4.80;3.20;;;;;;100452.10;;;;107605;1276;28694;-32
2022/05/31 01:18:34;;;;;;;4.40;2.90;;;;;;100451.09;;;;107648;1276;28485;-32
2022/05/31 01:21:01;;;;;;;4.50;3.10;;;;;;100450.87;;;;107628;1276;28114;-32
2022/05/31 01:23:55;;;;;;;5.00;3.10;;;;;;100457.15;;;;107639;1277;28643;-32
2022/05/31 01:26:58;;;;;;;4.20;3.00;;;;;;100460.63;;;;107629;1277;29501;-32
2022/05/31 01:29:30;;;;;;;5.40;3.00;;;;;;100464.80;;;;107622;1276;27398;-32
2022/05/31 01:32:01;;;;;;;4.80;3.20;;;;;;100467.16;;;;107635;1276;27690;-31
2022/05/31 01:35:06;;;;;;;4.20;3.00;;;;;;100463.68;;;;107643;1276;28790;-31
2022/05/31 01:37:53;;;;;;;4.90;3.10;;;;;;100468.65;;;;107611;1277;27076;-32
2022/05/31 01:40:50;;;;;;;4.90;2.90;;;;;;100470.99;;;;107632;1276;28658;-31
2022/05/31 01:43:16;;;;;;;4.70;3.20;;;;;;100470.07;;;;107621;1276;28632;-31
2022/05/31 01:45:54;;;;;;;3.80;2.60;;;;;;100474.73;;;;107641;1276;28537;-31
2022/05/31 01:48:21;;;;;;;5.20;3.00;;;;;;100478.52;;;;107643;1276;28748;-32
2022/05/31 01:50:48;;;;;;;4.50;3.20;;;;;;100485.11;;;;107630;1276;27408;-32
2022/05/31 01:53:15;;;;;;;4.90;3.20;;;;;;100484.59;;;;107623;1276;28633;-32
2022/05/31 01:55:43;;;;;;;5.40;3.40;;;;;;100485.36;;;;107627;1276;28629;-32
2022/05/31 01:58:17;;;;;;;4.80;3.20;;;;;;100490.56;;;;107653;1276;29525;-32
2022/05/31 02:00:45;;;;;;;4.30;3.00;;;;;;100492.33;;;;107652;1276;28901;-32
2022/05/31 02:03:16;;;;;;;5.20;3.40;;;;;;100493.90;;;;107665;1277;28835;-32
2022/05/31 02:05:48;;;;;;;4.80;3.00;;;;;;100492.55;;;;107632;1276;28712;-31
2022/05/31 02:08:18;;;;;;;4.80;2.90;;;;;;100488.98;;;;107641;1276;28679;-31
2022/05/31 02:10:47;;;;;;;5.10;2.90;;;;;;100485.64;;;;107657;1276;27459;-32
2022/05/31 02:13:15;;;;;;;4.90;3.20;;;;;;100492.31;;;;107627;1276;29819;-32
2022/05/31 02:15:42;;;;;;;4.60;3.20;;;;;;100497.02;;;;107668;1276;27783;-32
2022/05/31 02:18:12;;;;;;;5.80;3.30;;;;;;100496.17;;;;107634;1277;28639;-32
2022/05/31 02:20:39;;;;;;;5.40;3.20;;;;;;100500.68;;;;107606;1276;28761;-32
2022/05/31 02:23:06;;;;;;;5.10;3.10;;;;;;100503.28;;;;107671;1276;26531;-31
2022/05/31 02:25:33;;;;;;;5.20;3.10;;;;;;100503.78;;;;107522;1276;28192;-31
2022/05/31 02:27:59;;;;;;;4.90;3.10;;;;;;100505.30;;;;107640;1276;28687;-31
2022/05/31 02:30:26;;;;;;;4.60;3.10;;;;;;100505.50;;;;107642;1276;28723;-31
2022/05/31 02:32:53;;;;;;;4.30;2.90;;;;;;100503.77;;;;107637;1276;27255;-31
2022/05/31 02:35:19;;;;;;;5.20;3.10;;;;;;100501.95;;;;107631;1277;27330;-32
2022/05/31 02:37:46;;;;;;;4.60;2.90;;;;;;100503.00;;;;107643;1276;27582;-32
2022/05/31 02:40:12;;;;;;;4.90;3.30;;;;;;100501.72;;;;107636;1277;28574;-32
2022/05/31 02:42:39;;;;;;;4.50;2.90;;;;;;100504.38;;;;107659;1276;28637;-32
2022/05/31 02:45:08;;;;;;;4.70;2.90;;;;;;100502.05;;;;107616;1277;28695;-32
2022/05/31 02:47:37;;;;;;;5.10;3.00;;;;;;100502.05;;;;107654;1276;27521;-32
2022/05/31 02:50:05;;;;;;;4.80;3.10;;;;;;100504.95;;;;107649;1276;28445;-32
2022/05/31 02:52:33;;;;;;;5.00;3.00;;;;;;100507.70;;;;107632;1276;28783;-32
2022/05/31 02:54:59;;;;;;;4.40;2.70;;;;;;100507.63;;;;107647;1276;28661;-32
2022/05/31 02:57:26;;;;;;;4.70;3.40;;;;;;100504.63;;;;107610;1276;28720;-32
2022/05/31 02:59:52;;;;;;;5.20;3.00;;;;;;100504.64;;;;107648;1276;26455;-32
2022/05/31 03:02:19;;;;;;;5.20;3.30;;;;;;100506.84;;;;107642;1276;28753;-32
2022/05/31 03:04:45;;;;;;;4.90;3.00;;;;;;100509.69;;;;107622;1276;28655;-32
2022/05/31 03:07:12;;;;;;;4.70;3.20;;;;;;100510.29;;;;107634;1277;28706;-32
2022/05/31 03:09:38;;;;;;;4.70;3.20;;;;;;100513.40;;;;107631;1276;28667;-32
2022/05/31 03:12:14;;;;;;;4.60;3.00;;;;;;100511.36;;;;107645;1276;27440;-32
2022/05/31 03:14:52;;;;;;;4.90;3.20;;;;;;100511.84;;;;107636;1276;30409;-32
2022/05/31 03:17:25;;;;;;;4.30;3.00;;;;;;100517.58;;;;107667;1276;27382;-32
2022/05/31 03:19:58;;;;;;;4.40;3.00;;;;;;100515.00;;;;107635;1277;28662;-32
2022/05/31 03:22:29;;;;;;;4.30;3.10;;;;;;100522.63;;;;107656;1276;29535;-30
2022/05/31 03:25:04;;;;;;;4.70;3.20;;;;;;100529.28;;;;107647;1276;27877;-31
2022/05/31 03:27:31;;;;;;;4.30;3.30;;;;;;100528.98;;;;107652;1276;29602;-31
2022/05/31 03:29:59;;;;;;;5.40;3.30;;;;;;100529.16;;;;107540;1276;29227;-31
2022/05/31 03:32:27;;;;;;;5.00;3.20;;;;;;100529.77;;;;107635;1276;28792;-31
2022/05/31 03:34:53;;;;;;;4.70;2.90;;;;;;100531.55;;;;107542;1279;27498;-31
2022/05/31 03:37:20;;;;;;;4.90;3.40;;;;;;100529.29;;;;107646;1276;27341;-30
2022/05/31 03:39:46;;;;;;;4.80;3.10;;;;;;100532.76;;;;107638;1276;29889;-31
2022/05/31 03:42:13;;;;;;;6.00;3.30;;;;;;100533.59;;;;107627;1276;29506;-31
2022/05/31 03:44:40;;;;;;;4.70;3.40;;;;;;100535.83;;;;107631;1276;28562;-30
2022/05/31 03:47:06;;;;;;;4.60;3.00;;;;;;100534.81;;;;107638;1276;28663;-31
2022/05/31 03:49:33;;;;;;;5.00;3.10;;;;;;100534.95;;;;107544;1277;28641;-28
2022/05/31 03:52:00;;;;;;;5.10;3.30;;;;;;100539.36;;;;107641;1276;28234;-29
2022/05/31 03:54:27;;;;;;;4.50;3.20;;;;;;100538.84;;;;107509;1277;28722;-29
2022/05/31 03:56:54;;;;;;;4.30;2.90;;;;;;100542.77;;;;107664;1277;28634;-29
2022/05/31 03:59:20;;;;;;;4.50;3.10;;;;;;100542.83;;;;107556;1277;28793;-28
2022/05/31 04:01:47;;;;;;;4.40;3.00;;;;;;100544.96;;;;107656;1276;28656;-29
2022/05/31 04:04:13;;;;;;;4.60;3.20;;;;;;100551.98;;;;107654;1276;27542;-29
2022/05/31 04:06:40;;;;;;;4.40;3.10;;;;;;100554.33;;;;107653;1276;28605;-29
2022/05/31 04:09:07;;;;;;;4.50;2.80;;;;;;100550.91;;;;107633;1277;29475;-29
2022/05/31 04:11:34;;;;;;;4.80;2.90;;;;;;100551.88;;;;107646;1276;27272;-29
2022/05/31 04:14:01;;;;;;;5.10;3.30;;;;;;100554.72;;;;107655;1277;28729;-29
2022/05/31 04:16:28;;;;;;;4.90;3.10;;;;;;100559.79;;;;107654;1276;28351;-29
2022/05/31 04:18:54;;;;;;;5.60;3.10;;;;;;100562.98;;;;107620;1276;26052;-29
2022/05/31 04:21:21;;;;;;;4.60;3.00;;;;;;100565.90;;;;107645;1276;26633;-29
2022/05/31 04:23:58;;;;;;;4.50;3.00;;;;;;100564.38;;;;107531;1278;28479;-29
2022/05/31 04:26:29;;;;;;;5.00;3.30;;;;;;100568.91;;;;107634;1276;28677;-29
2022/05/31 04:28:55;;;;;;;4.70;3.20;;;;;;100572.65;;;;107665;1276;29917;-29
2022/05/31 04:31:23;;;;;;;5.20;3.40;;;;;;100576.83;;;;107609;1276;28758;-29
2022/05/31 04:33:49;;;;;;;5.30;3.60;;;;;;100578.79;;;;107649;1277;28678;-29
2022/05/31 04:36:19;;;;;;;4.90;2.90;;;;;;100580.29;;;;107637;1276;26471;-29
2022/05/31 04:38:45;;;;;;;4.90;3.30;;;;;;100584.66;;;;107654;1276;28717;-29
2022/05/31 04:41:38;;;;;;;5.30;3.40;;;;;;100587.86;;;;107648;1277;27533;-29
2022/05/31 04:44:05;;;;;;;4.70;3.10;;;;;;100591.33;;;;107615;1276;28666;-29
2022/05/31 04:46:34;;;;;;;5.10;3.40;;;;;;100592.17;;;;107656;1276;27534;-29
2022/05/31 04:49:02;;;;;;;4.20;2.90;;;;;;100589.44;;;;107533;1278;27978;-29
2022/05/31 04:51:32;;;;;;;5.20;3.00;;;;;;100590.52;;;;107661;1277;26497;-29
2022/05/31 04:53:59;;;;;;;4.40;3.20;;;;;;100591.09;;;;107661;1277;29684;-29
2022/05/31 04:56:25;;;;;;;4.30;2.70;;;;;;100589.57;;;;107652;1276;29928;-29
2022/05/31 04:58:52;;;;;;;4.80;3.20;;;;;;100590.39;;;;107648;1276;28629;-29
2022/05/31 05:01:21;;;;;;;4.90;3.20;;;;;;100586.23;;;;107649;1276;26585;-29
2022/05/31 05:03:48;;;;;;;5.40;3.40;;;;;;100590.27;;;;107709;1277;27410;-29
2022/05/31 05:06:17;;;;;;;6.50;3.20;;;;;;100588.01;;;;107634;1277;28319;-29
2022/05/31 05:08:44;;;;;;;5.90;3.20;;;;;;100590.42;;;;107679;1276;26627;-29
2022/05/31 05:11:16;;;;;;;4.40;3.10;;;;;;100595.97;;;;107655;1276;28543;-29
2022/05/31 05:13:43;;;;;;;5.10;3.00;;;;;;100596.47;;;;107654;1277;27515;-30
2022/05/31 05:16:12;;;;;;;4.70;3.20;;;;;;100593.68;;;;107666;1276;28657;-30
2022/05/31 05:18:39;;;;;;;6.10;3.30;;;;;;100595.61;;;;107663;1276;28125;-28
2022/05/31 05:21:09;;;;;;;4.90;3.00;;;;;;100597.86;;;;107514;1277;29392;-30
2022/05/31 05:23:37;;;;;;;5.10;3.20;;;;;;100595.40;;;;107659;1276;29539;-29
2022/05/31 05:26:04;;;;;;;5.50;3.10;;;;;;100597.06;;;;107675;1277;27547;-28
2022/05/31 05:31:24;;;;;;;4.60;3.10;;;;;;100603.52;;;;107662;1276;28788;-28
2022/05/31 05:33:51;;;;;;;4.90;3.60;;;;;;100604.27;;;;107691;1276;27424;-28
2022/05/31 05:36:18;;;;;;;5.00;3.50;;;;;;100604.78;;;;107688;1276;27400;-28
2022/05/31 05:38:46;;;;;;;4.50;3.00;;;;;;100605.24;;;;107558;1277;28653;-28
2022/05/31 05:41:14;;;;;;;4.70;3.20;;;;;;100607.60;;;;107684;1277;28645;-28
2022/05/31 05:43:40;;;;;;;5.30;3.20;;;;;;100615.92;;;;107668;1276;29456;-28
2022/05/31 05:46:20;;;;;;;4.20;2.90;;;;;;100615.42;;;;107621;1276;27394;-28
2022/05/31 05:48:47;;;;;;;4.90;3.40;;;;;;100617.73;;;;107662;1276;26591;-28
2022/05/31 05:51:27;;;;;;;5.90;3.30;;;;;;100623.02;;;;107637;1277;28639;-29
2022/05/31 05:53:53;;;;;;;4.90;3.30;;;;;;100621.31;;;;107671;1277;28616;-29
2022/05/31 05:56:21;;;;;;;4.70;3.20;;;;;;100621.05;;;;107659;1276;28700;-29
2022/05/31 05:58:48;;;;;;;5.70;3.40;;;;;;100621.70;;;;107659;1277;29634;-29
2022/05/31 06:01:22;;;;;;;4.70;3.40;;;;;;100622.77;;;;107652;1276;27522;-28
2022/05/31 06:04:06;;;;;;;4.50;3.20;;;;;;100627.90;;;;107634;1276;27695;-28
2022/05/31 06:06:33;;;;;;;;;;;;;;100627.91;;;;107679;1276;26439;-29
2022/05/31 06:09:08;;;;;;;4.70;3.10;;;;;;100627.27;;;;107539;1277;29594;-29
2022/05/31 06:12:00;;;;;;;5.60;3.30;;;;;;100626.42;;;;107527;1277;27279;-29
2022/05/31 06:14:40;;;;;;;4.90;3.00;;;;;;100629.72;;;;107650;1277;27451;-29
2022/05/31 06:17:13;;;;;;;4.80;3.50;;;;;;100628.80;;;;107655;1276;28688;-29
2022/05/31 06:19:40;;;;;;;4.80;3.40;;;;;;100629.23;;;;107636;1277;27221;-30
2022/05/31 06:22:07;;;;;;;4.60;3.10;;;;;;100634.39;;;;107517;1277;28746;-29
2022/05/31 06:24:37;;;;;;;5.20;3.20;;;;;;100635.00;;;;107628;1276;28729;-29
2022/05/31 06:27:04;;;;;;;5.40;3.60;;;;;;100635.98;;;;107545;1277;27702;-29
2022/05/31 06:29:31;;;;;;;4.90;3.50;;;;;;100633.15;;;;107640;1277;28733;-28
2022/05/31 06:31:57;;;;;;;5.00;3.30;;;;;;100633.98;;;;107628;1276;28817;-29
2022/05/31 06:34:24;;;;;;;5.20;3.50;;;;;;100631.80;;;;107641;1276;28783;-29
2022/05/31 06:37:10;;;;;;;5.50;3.10;;;;;;100632.07;;;;107634;1277;28260;-28
2022/05/31 06:39:40;;;;;;;4.80;3.50;;;;;;100631.22;;;;107655;1277;28681;-29
2022/05/31 06:42:09;;;;;;;5.30;3.30;;;;;;100632.19;;;;107636;1276;28701;-29
2022/05/31 06:44:39;;;;;;;5.80;3.30;;;;;;100630.56;;;;107685;1277;29468;-29
2022/05/31 06:47:08;;;;;;;6.10;3.30;;;;;;100629.14;;;;107647;1276;28103;-29
2022/05/31 06:49:36;;;;;;;5.10;3.50;;;;;;100631.36;;;;107669;1277;28771;-28
2022/05/31 06:57:42;;;;;;;5.80;3.40;;;;;;100636.60;;;;107645;1276;28505;-28
2022/05/31 07:00:15;;;;;;;4.30;3.00;;;;;;100638.21;;;;107692;1276;28764;-29
2022/05/31 07:02:42;;;;;;;4.90;3.30;;;;;;100640.19;;;;107657;1276;27548;-29
2022/05/31 07:05:10;;;;;;;5.00;3.10;;;;;;100640.54;;;;107646;1276;27592;-29
2022/05/31 07:07:39;;;;;;;5.20;3.50;;;;;;100639.60;;;;107649;1276;28655;-29
2022/05/31 07:10:07;;;;;;;4.70;3.00;;;;;;100642.70;;;;107674;1276;27614;-29
2022/05/31 07:12:35;;;;;;;4.90;3.30;;;;;;100644.54;;;;107682;1277;28119;-29
2022/05/31 07:15:04;;;;;;;5.40;3.00;;;;;;100649.20;;;;107658;1276;30215;-28
2022/05/31 07:17:30;;;;;;;5.70;3.20;;;;;;100646.05;;;;107635;1277;28734;-28
2022/05/31 07:19:57;;;;;;;5.60;3.60;;;;;;100649.50;;;;107641;1276;28682;-28
2022/05/31 07:22:23;;;;;;;5.40;3.20;;;;;;100651.49;;;;107537;1278;28824;-28
2022/05/31 07:24:50;;;;;;;6.80;3.80;;;;;;100653.81;;;;107648;1276;29490;-27
2022/05/31 07:27:17;;;;;;;6.80;3.60;;;;;;100651.54;;;;107620;1276;27628;-28
2022/05/31 07:29:43;;;;;;;5.80;3.30;;;;;;100653.89;;;;107639;1277;28714;-28
2022/05/31 07:32:10;;;;;;;6.60;3.60;;;;;;100648.63;;;;107657;1276;28032;-28
2022/05/31 07:34:37;;;;;;;7.60;3.30;;;;;;100647.89;;;;107638;1276;27641;-28
2022/05/31 07:37:04;;;;;;;6.30;3.50;;;;;;100644.33;;;;107641;1277;28767;-28
2022/05/31 07:39:30;;;;;;;6.10;3.70;;;;;;100650.33;;;;107623;1278;28640;-28
2022/05/31 07:41:59;;;;;;;5.90;3.40;;;;;;100647.54;;;;107622;1276;28703;-28
2022/05/31 07:44:26;;;;;;;6.00;3.40;;;;;;100649.31;;;;107637;1276;28851;-29
2022/05/31 07:46:54;;;;;;;4.70;3.10;;;;;;100647.69;;;;107680;1276;28785;-29
2022/05/31 07:49:22;;;;;;;6.60;3.20;;;;;;100651.14;;;;107655;1277;27544;-29
2022/05/31 07:51:49;;;;;;;4.60;2.90;;;;;;100647.99;;;;107664;1276;28692;-29
2022/05/31 07:54:16;;;;;;;8.30;3.70;;;;;;100644.83;;;;107641;1276;27376;-29
2022/05/31 07:56:42;;;;;;;6.70;3.20;;;;;;100651.31;;;;107670;1277;28579;-29
2022/05/31 07:59:09;;;;;;;6.20;3.10;;;;;;100647.30;;;;107643;1276;26443;-29
2022/05/31 08:01:36;;;;;;;6.20;2.90;;;;;;100655.35;;;;107528;1276;27567;-29
2022/05/31 08:04:03;;;;;;;7.60;3.20;;;;;;100652.48;;;;107619;1277;29571;-29
2022/05/31 08:06:33;;;;;;;4.70;2.70;;;;;;100648.98;;;;107653;1277;28703;-29
2022/05/31 08:09:00;;;;;;;5.40;3.30;;;;;;100650.77;;;;107659;1277;29599;-29
2022/05/31 08:11:30;;;;;;;5.60;3.20;;;;;;100647.46;;;;107664;1277;29400;-31
2022/05/31 08:13:57;;;;;;;6.10;2.90;;;;;;100646.90;;;;107552;1278;27547;-29
2022/05/31 08:16:28;;;;;;;7.20;3.00;;;;;;100645.67;;;;107369;1278;26440;-28
2022/05/31 08:18:56;;;;;;;6.50;3.40;;;;;;100643.40;;;;107523;1279;28643;-29
2022/05/31 08:21:28;;;;;;;7.20;3.20;;;;;;100640.20;;;;107512;1278;27569;-29
2022/05/31 08:24:01;;;;;;;7.20;2.70;;;;;;100636.58;;;;107463;1277;28661;-29
2022/05/31 08:26:28;;;;;;;;;;;;;;100638.61;;;;107519;1277;28081;-28
2022/05/31 08:28:55;;;;;;;5.70;3.20;;;;;;100636.31;;;;107492;1278;28509;-29
2022/05/31 08:31:26;;;;;;;5.80;2.90;;;;;;100635.88;;;;107482;1278;27478;-29
2022/05/31 08:33:53;;;;;;;5.50;2.90;;;;;;100638.31;;;;107504;1277;28677;-28
2022/05/31 08:36:20;;;;;;;5.60;3.10;;;;;;100636.65;;;;107515;1277;28638;-28
2022/05/31 08:38:47;;;;;;;5.20;3.10;;;;;;100637.98;;;;107518;1278;28836;-28
2022/05/31 08:41:42;;;;;;;4.70;2.90;;;;;;100638.42;;;;107510;1278;28626;-29
2022/05/31 08:44:42;;;;;;;5.00;2.90;;;;;;100641.86;;;;107474;1280;29245;-28
2022/05/31 08:47:36;;;;;;;5.70;2.80;;;;;;100645.02;;;;107496;1278;27395;-28
2022/05/31 08:53:26;;;;;;;6.60;3.10;;;;;;100642.36;;;;107498;1278;28979;-29
2022/05/31 08:59:19;;;;;;;4.70;2.60;;;;;;100647.08;;;;107482;1278;27400;-29
2022/05/31 09:02:00;;;;;;;5.60;2.70;;;;;;100650.29;;;;107507;1279;28722;-28
2022/05/31 09:04:34;;;;;;;4.90;2.70;;;;;;100651.34;;;;107479;1278;26469;-29
2022/05/31 09:07:19;;;;;;;6.50;3.10;;;;;;100645.50;;;;107482;1277;28843;-29
2022/05/31 09:10:11;;;;;;;5.80;2.50;;;;;;100646.92;;;;107491;1278;26515;-28
2022/05/31 09:12:53;;;;;;;5.10;2.40;;;;;;100645.92;;;;107509;1277;28656;-28
2022/05/31 09:16:11;;;;;;;5.10;2.50;;;;;;100649.73;;;;107490;1277;29581;-28
2022/05/31 09:18:45;;;;;;;3.80;2.40;;;;;;100651.70;;;;107009;1284;27651;-28
2022/05/31 09:21:27;;;;;;;4.20;2.60;;;;;;100654.50;;;;107506;1277;30230;-29
2022/05/31 09:23:55;;;;;;;4.90;2.30;;;;;;100647.77;;;;107433;1280;28950;-29
2022/05/31 09:27:04;;;;;;;4.60;2.30;;;;;;100645.71;;;;107534;1278;26360;-29
2022/05/31 09:29:49;;;;;;;5.30;2.70;;;;;;100651.99;;;;107501;1277;27265;-29
2022/05/31 09:32:46;;;;;;;5.30;2.40;;;;;;100649.98;;;;107480;1278;28627;-29
2022/05/31 09:35:36;;;;;;;5.80;2.60;;;;;;100643.65;;;;107492;1278;29752;-29
2022/05/31 09:38:22;;;;;;;5.10;2.70;;;;;;100639.40;;;;107481;1279;27520;-29
2022/05/31 09:40:52;;;;;;;4.60;2.40;;;;;;100647.39;;;;107486;1280;27419;-28
2022/05/31 09:43:37;;;;;;;4.50;2.50;;;;;;100646.13;;;;107464;1280;26500;-28
2022/05/31 09:46:38;;;;;;;5.00;2.20;;;;;;100647.56;;;;107487;1277;29177;-29
2022/05/31 09:49:18;;;;;;;4.50;2.40;;;;;;100646.57;;;;107329;1282;28834;-29
2022/05/31 09:51:45;;;;;;;4.40;2.10;;;;;;100652.55;;;;107498;1277;27747;-30
2022/05/31 09:57:09;;;;;;;3.90;2.00;;;;;;100650.13;;;;107357;1280;28520;-29
2022/05/31 09:59:49;;;;;;;4.80;2.70;;;;;;100645.75;;;;107382;1281;28831;-27
2022/05/31 10:02:30;;;;;;;4.50;2.40;;;;;;100649.05;;;;107434;1280;29786;-28
2022/05/31 10:05:21;;;;;;;4.00;2.10;;;;;;100650.38;;;;107480;1278;29222;-28
2022/05/31 10:07:49;;;;;;;3.50;1.90;;;;;;100651.30;;;;107496;1277;27445;-29
2022/05/31 10:10:28;;;;;;;5.20;2.20;;;;;;100651.71;;;;107527;1277;27623;-29
2022/05/31 10:12:59;;;;;;;3.60;2.00;;;;;;100649.86;;;;107452;1277;27247;-30
2022/05/31 10:15:44;;;;;;;4.10;2.20;;;;;;100651.76;;;;107503;1278;28687;-30
2022/05/31 10:18:30;;;;;;;3.90;2.10;;;;;;100643.77;;;;107495;1278;28669;-31
2022/05/31 10:21:07;;;;;;;4.00;2.00;;;;;;100647.33;;;;107522;1280;28633;-31
2022/05/31 10:23:44;;;;;;;4.90;1.90;;;;;;100645.33;;;;107435;1278;27250;-30
2022/05/31 10:26:31;;;;;;;5.30;2.30;;;;;;100640.23;;;;107456;1278;27246;-30
2022/05/31 10:29:06;;;;;;;4.20;2.20;;;;;;100642.70;;;;107526;1277;28846;-30
2022/05/31 10:31:40;;;;;;;4.90;2.20;;;;;;100647.13;;;;107541;1282;28554;-30
2022/05/31 10:34:33;;;;;;;3.50;1.70;;;;;;100641.54;;;;107621;1277;28654;-31
2022/05/31 10:37:04;;;;;;;2.80;1.50;;;;;;100642.50;;;;107504;1279;27482;-31
2022/05/31 10:39:36;;;;;;;4.00;2.40;;;;;;100643.88;;;;107519;1278;27319;-31
2022/05/31 10:42:09;;;;;;;3.90;2.00;;;;;;100641.48;;;;107520;1278;28859;-31
2022/05/31 10:44:45;;;;;;;3.30;1.80;;;;;;100641.36;;;;107525;1280;29946;-32
2022/05/31 10:47:16;;;;;;;4.00;2.30;;;;;;100636.23;;;;107551;1278;28716;-32
2022/05/31 10:49:45;;;;;;;3.70;1.90;;;;;;100643.88;;;;107507;1282;28578;-32
2022/05/31 10:52:36;;;;;;;3.60;1.90;;;;;;100644.27;;;;107507;1278;26205;-32
2022/05/31 10:55:27;;;;;;;4.20;2.20;;;;;;100647.70;;;;107507;1278;29624;-31
2022/05/31 10:58:11;;;;;;;3.50;1.90;;;;;;100636.82;;;;107503;1278;28649;-31
2022/05/31 11:00:58;;;;;;;;;;;;;;100637.54;;;;107541;1277;28660;-30
2022/05/31 11:03:45;;;;;;;4.00;2.00;;;;;;100632.55;;;;107507;1282;28652;-30
2022/05/31 11:06:38;;;;;;;3.50;1.90;;;;;;100638.92;;;;107514;1282;28687;-30
2022/05/31 11:12:42;;;;;;;3.70;1.90;;;;;;100639.56;;;;107515;1281;27505;-29
2022/05/31 11:15:33;;;;;;;3.50;1.80;;;;;;100641.02;;;;107494;1281;26462;-29
2022/05/31 11:18:13;;;;;;;3.70;1.90;;;;;;100640.41;;;;107494;1282;28748;-29
2022/05/31 11:21:26;;;;;;;3.90;1.80;;;;;;100636.84;;;;107482;1279;28691;-29
2022/05/31 11:24:20;;;;;;;3.60;1.70;;;;;;100625.06;;;;107495;1277;27593;-30
2022/05/31 11:27:51;;;;;;;3.50;1.80;;;;;;100626.94;;;;107490;1278;26458;-31
2022/05/31 11:30:45;;;;;;;3.90;1.60;;;;;;100627.95;;;;107496;1278;28674;-29
2022/05/31 11:34:00;;;;;;;3.30;1.60;;;;;;100629.30;;;;107169;1282;26658;-29
2022/05/31 11:37:11;;;;;;;3.90;1.80;;;;;;100629.88;;;;107535;1282;29698;-28
2022/05/31 11:40:07;;;;;;;2.90;1.50;;;;;;100625.77;;;;107506;1282;30363;-30
2022/05/31 11:43:10;;;;;;;2.90;1.50;;;;;;100618.07;;;;107511;1281;26738;-29
2022/05/31 11:46:02;;;;;;;2.80;1.60;;;;;;100615.02;;;;107517;1278;28644;-29
2022/05/31 11:48:51;;;;;;;2.90;1.50;;;;;;100618.21;;;;107498;1278;27400;-27
2022/05/31 11:51:40;;;;;;;3.30;1.50;;;;;;100613.83;;;;107523;1278;28684;-30
2022/05/31 11:54:39;;;;;;;5.00;1.60;;;;;;100609.04;;;;107355;1281;28604;-30
2022/05/31 11:57:31;;;;;;;3.40;1.60;;;;;;100611.12;;;;107497;1278;29766;-31
2022/05/31 12:00:07;;;;;;;3.40;1.60;;;;;;100612.35;;;;107535;1277;28864;-30
2022/05/31 12:03:03;;;;;;;3.50;1.80;;;;;;100608.77;;;;107389;1280;29682;-30
2022/05/31 12:05:37;;;;;;;3.00;1.50;;;;;;100608.45;;;;107503;1278;26091;-30
2022/05/31 12:08:17;;;;;;;2.90;1.40;;;;;;100606.41;;;;107464;1281;27556;-31
2022/05/31 12:10:49;;;;;;;3.10;1.50;;;;;;100611.75;;;;107502;1278;29658;-31
2022/05/31 12:13:16;;;;;;;2.70;1.40;;;;;;100606.93;;;;107470;1278;27636;-31
2022/05/31 12:15:44;;;;;;;3.00;1.50;;;;;;100602.33;;;;107358;1278;27518;-30
2022/05/31 12:18:37;;;;;;;3.30;1.60;;;;;;100602.30;;;;107514;1277;28585;-30
2022/05/31 12:21:48;;;;;;;3.90;1.50;;;;;;100607.65;;;;107505;1280;28582;-30
2022/05/31 12:24:44;;;;;;;3.10;1.60;;;;;;100601.71;;;;107533;1277;28796;-30
2022/05/31 12:27:21;;;;;;;3.20;1.60;;;;;;100599.17;;;;107509;1277;27520;-30
2022/05/31 12:29:58;;;;;;;2.60;1.50;;;;;;100600.55;;;;107504;1278;28760;-30
2022/05/31 12:32:38;;;;;;;3.50;1.50;;;;;;100595.56;;;;107509;1278;28722;-29
2022/05/31 12:35:45;;;;;;;2.90;1.50;;;;;;100590.80;;;;107518;1277;28857;-30
2022/05/31 12:38:12;;;;;;;3.80;1.70;;;;;;100581.44;;;;107377;1278;26851;-30
2022/05/31 12:40:48;;;;;;;3.50;1.70;;;;;;100578.91;;;;107498;1277;27271;-29
2022/05/31 12:43:44;;;;;;;2.50;1.20;;;;;;100582.05;;;;107515;1278;27426;-29
2022/05/31 12:46:46;;;;;;;3.00;1.60;;;;;;100571.42;;;;107456;1278;27520;-29
2022/05/31 12:49:27;;;;;;;2.80;1.50;;;;;;100565.79;;;;107520;1277;27478;-29
2022/05/31 12:53:04;;;;;;;2.90;1.60;;;;;;100565.86;;;;107500;1278;28776;-29
2022/05/31 12:54:59;;;;;;;3.60;1.40;;;;;;100562.52;;;;107449;1278;28644;-29
2022/05/31 12:58:26;;;;;;;2.60;1.30;;;;;;100567.98;;;;107502;1278;28683;-29
2022/05/31 13:00:33;;;;;;;2.50;1.40;;;;;;100568.52;;;;107363;1277;28537;-30
2022/05/31 13:03:25;;;;;;;3.00;1.60;;;;;;100561.14;;;;107473;1278;28881;-30
2022/05/31 13:06:20;;;;;;;3.00;1.50;;;;;;100563.36;;;;107486;1278;27743;-29
2022/05/31 13:08:56;;;;;;;2.90;1.60;;;;;;100564.93;;;;107493;1278;28636;-29
2022/05/31 13:20:47;;;;;;;2.50;1.30;;;;;;100558.12;;;;107504;1277;28781;-28
2022/05/31 13:23:26;;;;;;;3.60;1.40;;;;;;100558.52;;;;107500;1278;28749;-28
2022/05/31 13:26:04;;;;;;;2.70;1.40;;;;;;100553.56;;;;107536;1277;27283;-28
2022/05/31 13:28:34;;;;;;;2.60;1.30;;;;;;100553.27;;;;107306;1277;321383;-28
2022/05/31 13:31:09;;;;;;;3.20;1.30;;;;;;100553.52;;;;107535;1277;29076;-30
2022/05/31 13:33:37;;;;;;;3.00;1.40;;;;;;100551.43;;;;107536;1277;28687;-30
2022/05/31 13:36:23;;;;;;;2.30;1.20;;;;;;100553.89;;;;107529;1278;27401;-30
2022/05/31 13:39:00;;;;;;;3.30;1.30;;;;;;100557.94;;;;107502;1277;27710;-30
2022/05/31 13:41:27;;;;;;;2.60;1.50;;;;;;100554.41;;;;107580;1278;28675;-30
2022/05/31 13:43:57;;;;;;;2.30;1.20;;;;;;100553.15;;;;107541;1278;28274;-31
2022/05/31 13:46:36;;;;;;;2.80;1.40;;;;;;100550.45;;;;107553;1277;28749;-30
2022/05/31 13:49:11;;;;;;;3.50;1.50;;;;;;100549.67;;;;107494;1279;28696;-30
2022/05/31 13:51:51;;;;;;;3.10;1.40;;;;;;100549.75;;;;107578;1277;28534;-30
2022/05/31 13:54:22;;;;;;;3.10;1.50;;;;;;100544.95;;;;107558;1277;28738;-30
2022/05/31 13:56:50;;;;;;;2.70;1.30;;;;;;100544.45;;;;107550;1277;29021;-30